Terminal Aerodrome Forecast
Issued by NWS

Home | Current Version | Previous Version | Text Only | Print | Product List | Glossary On
Versions: 1 2 3 4 5 6 7 8 9 10 11 12 13 14 15 16 17 18 19 20
492
FTUS46 KSTO 092349
TAFSAC
TAF
KSAC 092349Z 1000/1024 21005KT 6SM BR SCT025 OVC040
      TEMPO 1002/1006 4SM BR OVC025
     FM100700 18007KT 4SM -RA BR OVC020
      TEMPO 1007/1011 2SM -RA OVC015
     FM101200 16015G25KT 2SM -RA BR OVC005=

USA.gov is the U.S. government's official web portal to all federal, state and local government web resources and services.